IGO1123 VABB-VIDP
Flight info
| Callsign | IGO1123 |
|---|---|
| Flight time | 0h 38m |
| Altitude | 39000 |
| Route | ANOLI2A ISRIS Q1 UKASO UKASO6C |
| Aircraft | A20N/M-SDE2E3FGHIRWXY/LB1 |
Departure
| Time | 2026-04-27 09:43 |
|---|---|
| Airport | Chhatrapati Shivaji Maharaj International Airport (VABB) |
Arrival
| Time | 2026-04-27 10:22 |
|---|---|
| Airport | Indira Gandhi International Airport (VIDP) |
| Time | Latitude | Longitude | Altitude | Speed | Heading |
|---|---|---|---|---|---|
| 2026-04-27 09:40 | 19.08843 | 72.84837 | 22 ft | 0 kts | 89° |
| 2026-04-27 09:42 | 19.08844 | 72.84906 | 22 ft | 36 kts | 89° |
| 2026-04-27 09:43 | 19.08851 | 72.85487 | 26 ft | 116 kts | 89° |
| 2026-04-27 09:43 | 19.08866 | 72.86574 | 79 ft | 173 kts | 89° |
| 2026-04-27 09:43 | 19.08887 | 72.87915 | 576 ft | 190 kts | 89° |
| 2026-04-27 09:43 | 19.08909 | 72.89323 | 1348 ft | 195 kts | 91° |
| 2026-04-27 09:44 | 19.08856 | 72.90635 | 1544 ft | 167 kts | 91° |
| 2026-04-27 09:44 | 19.08874 | 72.91756 | 1660 ft | 140 kts | 88° |
| 2026-04-27 09:44 | 19.08919 | 72.92865 | 1927 ft | 160 kts | 87° |
| 2026-04-27 09:44 | 19.09230 | 72.94056 | 2083 ft | 181 kts | 52° |
| 2026-04-27 09:45 | 19.10263 | 72.94929 | 2511 ft | 206 kts | 29° |
| 2026-04-27 09:45 | 19.11658 | 72.95683 | 2776 ft | 243 kts | 25° |
| 2026-04-27 09:45 | 19.13238 | 72.96482 | 2977 ft | 259 kts | 26° |
| 2026-04-27 09:45 | 19.14877 | 72.97337 | 3179 ft | 261 kts | 27° |
| 2026-04-27 09:46 | 19.16498 | 72.98213 | 3379 ft | 262 kts | 27° |
| 2026-04-27 09:46 | 19.22775 | 73.01688 | 4155 ft | 265 kts | 28° |
| 2026-04-27 09:46 | 19.24382 | 73.02617 | 4353 ft | 266 kts | 29° |
| 2026-04-27 09:46 | 19.26027 | 73.03574 | 4555 ft | 267 kts | 29° |
| 2026-04-27 09:47 | 19.27655 | 73.04518 | 4755 ft | 268 kts | 28° |
| 2026-04-27 09:47 | 19.29298 | 73.05469 | 4970 ft | 268 kts | 28° |
| 2026-04-27 09:47 | 19.30917 | 73.06403 | 5836 ft | 266 kts | 28° |
| 2026-04-27 09:47 | 19.32500 | 73.07315 | 7082 ft | 256 kts | 28° |
| 2026-04-27 09:48 | 19.34004 | 73.08182 | 8315 ft | 243 kts | 28° |
| 2026-04-27 09:48 | 19.35417 | 73.08995 | 9540 ft | 227 kts | 28° |
| 2026-04-27 09:48 | 19.36780 | 73.09781 | 10296 ft | 230 kts | 28° |
| 2026-04-27 09:48 | 19.38244 | 73.10623 | 10810 ft | 245 kts | 28° |
| 2026-04-27 09:49 | 19.39778 | 73.11507 | 11317 ft | 260 kts | 28° |
| 2026-04-27 09:49 | 19.41424 | 73.12455 | 11830 ft | 275 kts | 28° |
| 2026-04-27 09:49 | 19.43127 | 73.13436 | 12332 ft | 289 kts | 28° |
| 2026-04-27 09:49 | 19.44950 | 73.14487 | 12842 ft | 303 kts | 28° |
| 2026-04-27 09:50 | 19.46858 | 73.15587 | 13351 ft | 317 kts | 28° |
| 2026-04-27 09:50 | 19.48811 | 73.16712 | 13850 ft | 330 kts | 28° |
| 2026-04-27 09:50 | 19.50871 | 73.17900 | 14356 ft | 342 kts | 28° |
| 2026-04-27 09:50 | 19.53020 | 73.19140 | 14866 ft | 354 kts | 28° |
| 2026-04-27 09:51 | 19.55203 | 73.20400 | 15367 ft | 364 kts | 28° |
| 2026-04-27 09:51 | 19.57444 | 73.21693 | 15868 ft | 373 kts | 28° |
| 2026-04-27 09:51 | 19.91006 | 73.41112 | 23013 ft | 381 kts | 28° |
| 2026-04-27 09:51 | 20.29376 | 73.60406 | 30337 ft | 384 kts | 16° |
| 2026-04-27 09:52 | 20.53944 | 73.66058 | 34654 ft | 380 kts | 4° |
| 2026-04-27 09:52 | 20.56564 | 73.66408 | 35148 ft | 373 kts | 13° |
| 2026-04-27 09:52 | 20.59030 | 73.67142 | 35635 ft | 368 kts | 18° |
| 2026-04-27 09:52 | 20.61496 | 73.68008 | 35805 ft | 371 kts | 19° |
| 2026-04-27 09:53 | 20.63925 | 73.68900 | 35955 ft | 375 kts | 19° |
| 2026-04-27 09:53 | 20.66434 | 73.69833 | 36057 ft | 379 kts | 19° |
| 2026-04-27 09:53 | 20.68938 | 73.70767 | 36174 ft | 384 kts | 19° |
| 2026-04-27 09:54 | 20.72179 | 73.71980 | 36299 ft | 390 kts | 19° |
| 2026-04-27 09:54 | 20.73624 | 73.72520 | 36354 ft | 392 kts | 19° |
| 2026-04-27 09:55 | 20.76678 | 73.73663 | 36469 ft | 397 kts | 19° |
| 2026-04-27 09:55 | 20.82096 | 73.75693 | 36677 ft | 405 kts | 19° |
| 2026-04-27 09:56 | 20.84764 | 73.76692 | 36779 ft | 408 kts | 19° |
| 2026-04-27 09:56 | 20.87463 | 73.77705 | 36880 ft | 412 kts | 19° |
| 2026-04-27 09:56 | 20.90182 | 73.78725 | 36982 ft | 415 kts | 19° |
| 2026-04-27 09:56 | 20.92918 | 73.79752 | 37082 ft | 418 kts | 19° |
| 2026-04-27 09:57 | 20.95718 | 73.80803 | 37184 ft | 421 kts | 19° |
| 2026-04-27 09:57 | 20.98497 | 73.81847 | 37284 ft | 424 kts | 19° |
| 2026-04-27 09:57 | 21.01285 | 73.82894 | 37385 ft | 427 kts | 19° |
| 2026-04-27 09:57 | 21.04095 | 73.83950 | 37485 ft | 429 kts | 19° |
| 2026-04-27 09:58 | 21.06941 | 73.85020 | 37586 ft | 431 kts | 19° |
| 2026-04-27 09:58 | 21.09790 | 73.86092 | 37686 ft | 434 kts | 19° |
| 2026-04-27 09:58 | 21.15494 | 73.88230 | 37885 ft | 437 kts | 19° |
| 2026-04-27 09:59 | 21.18378 | 73.89312 | 37986 ft | 439 kts | 19° |
| 2026-04-27 09:59 | 21.21281 | 73.90402 | 38086 ft | 440 kts | 19° |
| 2026-04-27 09:59 | 21.27057 | 73.92577 | 38285 ft | 442 kts | 19° |
| 2026-04-27 10:00 | 21.32885 | 73.94774 | 38485 ft | 444 kts | 19° |
| 2026-04-27 10:00 | 21.35815 | 73.95880 | 38586 ft | 445 kts | 19° |
| 2026-04-27 10:00 | 21.38742 | 73.96986 | 38686 ft | 445 kts | 19° |
| 2026-04-27 10:01 | 21.44604 | 73.99201 | 38886 ft | 446 kts | 19° |
| 2026-04-27 10:01 | 21.50461 | 74.01417 | 39004 ft | 447 kts | 19° |
| 2026-04-27 10:02 | 21.56330 | 74.03639 | 39013 ft | 448 kts | 19° |
| 2026-04-27 10:02 | 22.31170 | 74.32129 | 38960 ft | 448 kts | 19° |
| 2026-04-27 10:03 | 23.25647 | 74.68570 | 39116 ft | 448 kts | 20° |
| 2026-04-27 10:03 | 24.19647 | 75.05405 | 38834 ft | 448 kts | 20° |
| 2026-04-27 10:04 | 25.13941 | 75.42914 | 39200 ft | 448 kts | 20° |
| 2026-04-27 10:04 | 25.61162 | 75.61886 | 38951 ft | 448 kts | 20° |
| 2026-04-27 10:04 | 26.07972 | 75.81004 | 38873 ft | 448 kts | 20° |
| 2026-04-27 10:05 | 26.55133 | 76.00243 | 37159 ft | 450 kts | 20° |
| 2026-04-27 10:05 | 27.02279 | 76.19769 | 31159 ft | 451 kts | 20° |
| 2026-04-27 10:05 | 27.49376 | 76.39350 | 25267 ft | 449 kts | 20° |
| 2026-04-27 10:05 | 27.94791 | 76.59151 | 19276 ft | 422 kts | 25° |
| 2026-04-27 10:06 | 28.01423 | 76.63231 | 18227 ft | 393 kts | 47° |
| 2026-04-27 10:06 | 28.02845 | 76.65810 | 17823 ft | 386 kts | 71° |
| 2026-04-27 10:06 | 28.03397 | 76.68755 | 17423 ft | 384 kts | 86° |
| 2026-04-27 10:06 | 28.03338 | 76.71740 | 17037 ft | 383 kts | 93° |
| 2026-04-27 10:07 | 28.03176 | 76.74737 | 16635 ft | 381 kts | 94° |
| 2026-04-27 10:07 | 28.03002 | 76.77724 | 16233 ft | 378 kts | 94° |
| 2026-04-27 10:07 | 28.02825 | 76.80664 | 16019 ft | 376 kts | 94° |
| 2026-04-27 10:07 | 28.02646 | 76.83604 | 16012 ft | 377 kts | 94° |
| 2026-04-27 10:08 | 28.02465 | 76.86576 | 16009 ft | 377 kts | 94° |
| 2026-04-27 10:08 | 28.02285 | 76.89516 | 16008 ft | 377 kts | 94° |
| 2026-04-27 10:08 | 28.02104 | 76.92462 | 16007 ft | 377 kts | 94° |
| 2026-04-27 10:08 | 28.01920 | 76.95442 | 16007 ft | 377 kts | 94° |
| 2026-04-27 10:09 | 28.01738 | 76.98402 | 16007 ft | 377 kts | 94° |
| 2026-04-27 10:09 | 28.01556 | 77.01350 | 16007 ft | 377 kts | 94° |
| 2026-04-27 10:09 | 28.01374 | 77.04306 | 16007 ft | 377 kts | 94° |
| 2026-04-27 10:09 | 28.01190 | 77.07249 | 16007 ft | 377 kts | 94° |
| 2026-04-27 10:10 | 28.01007 | 77.10151 | 16000 ft | 364 kts | 94° |
| 2026-04-27 10:10 | 28.00826 | 77.12947 | 15999 ft | 346 kts | 94° |
| 2026-04-27 10:10 | 28.00761 | 77.15582 | 15989 ft | 329 kts | 83° |
| 2026-04-27 10:10 | 28.01392 | 77.18002 | 15995 ft | 312 kts | 62° |
| 2026-04-27 10:11 | 28.02644 | 77.19897 | 15997 ft | 296 kts | 42° |
| 2026-04-27 10:11 | 28.04310 | 77.21171 | 16002 ft | 290 kts | 23° |
| 2026-04-27 10:11 | 28.06260 | 77.21808 | 16011 ft | 290 kts | 10° |
| 2026-04-27 10:11 | 28.08249 | 77.22182 | 16008 ft | 291 kts | 9° |
| 2026-04-27 10:12 | 28.10262 | 77.22540 | 16007 ft | 291 kts | 9° |
| 2026-04-27 10:12 | 28.12268 | 77.22902 | 16006 ft | 292 kts | 9° |
| 2026-04-27 10:12 | 28.14291 | 77.23277 | 16006 ft | 292 kts | 9° |
| 2026-04-27 10:12 | 28.16283 | 77.23655 | 16006 ft | 292 kts | 9° |
| 2026-04-27 10:13 | 28.18298 | 77.24042 | 16006 ft | 292 kts | 9° |
| 2026-04-27 10:13 | 28.20281 | 77.24425 | 16006 ft | 292 kts | 9° |
| 2026-04-27 10:13 | 28.22281 | 77.24815 | 16006 ft | 292 kts | 9° |
| 2026-04-27 10:13 | 28.24293 | 77.25249 | 15999 ft | 292 kts | 14° |
| 2026-04-27 10:14 | 28.26250 | 77.25912 | 15708 ft | 291 kts | 18° |
| 2026-04-27 10:14 | 28.28151 | 77.26640 | 15410 ft | 289 kts | 19° |
| 2026-04-27 10:14 | 28.30025 | 77.27355 | 15001 ft | 284 kts | 18° |
| 2026-04-27 10:14 | 28.31909 | 77.28061 | 14339 ft | 285 kts | 18° |
| 2026-04-27 10:15 | 28.33792 | 77.28754 | 13668 ft | 285 kts | 18° |
| 2026-04-27 10:15 | 28.35654 | 77.29433 | 13055 ft | 281 kts | 18° |
| 2026-04-27 10:15 | 28.37520 | 77.30109 | 12440 ft | 278 kts | 18° |
| 2026-04-27 10:15 | 28.39344 | 77.30769 | 11831 ft | 275 kts | 17° |
| 2026-04-27 10:16 | 28.41167 | 77.31427 | 11218 ft | 272 kts | 17° |
| 2026-04-27 10:16 | 28.42950 | 77.32070 | 10617 ft | 270 kts | 17° |
| 2026-04-27 10:16 | 28.44731 | 77.32713 | 10015 ft | 267 kts | 17° |
| 2026-04-27 10:16 | 28.46489 | 77.33348 | 9417 ft | 264 kts | 17° |
| 2026-04-27 10:17 | 28.48216 | 77.33971 | 8828 ft | 262 kts | 17° |
| 2026-04-27 10:17 | 28.49945 | 77.34596 | 8218 ft | 260 kts | 17° |
| 2026-04-27 10:17 | 28.51719 | 77.35234 | 6917 ft | 285 kts | 16° |
| 2026-04-27 10:17 | 28.53691 | 77.35503 | 5430 ft | 305 kts | 349° |
| 2026-04-27 10:18 | 28.55586 | 77.34495 | 4356 ft | 305 kts | 316° |
| 2026-04-27 10:18 | 28.56709 | 77.32534 | 3591 ft | 294 kts | 286° |
| 2026-04-27 10:18 | 28.56885 | 77.30305 | 3159 ft | 275 kts | 267° |
| 2026-04-27 10:18 | 28.56786 | 77.28232 | 3010 ft | 249 kts | 267° |
| 2026-04-27 10:19 | 28.56721 | 77.26334 | 3006 ft | 239 kts | 268° |
| 2026-04-27 10:19 | 28.56706 | 77.24438 | 2934 ft | 234 kts | 270° |
| 2026-04-27 10:19 | 28.56739 | 77.22616 | 2692 ft | 229 kts | 271° |
| 2026-04-27 10:19 | 28.56785 | 77.20825 | 2390 ft | 227 kts | 271° |
| 2026-04-27 10:20 | 28.56826 | 77.19106 | 2169 ft | 206 kts | 271° |
| 2026-04-27 10:20 | 28.56859 | 77.17541 | 1858 ft | 194 kts | 271° |
| 2026-04-27 10:20 | 28.56891 | 77.16065 | 1609 ft | 181 kts | 271° |
| 2026-04-27 10:20 | 28.56922 | 77.14672 | 1355 ft | 170 kts | 271° |
| 2026-04-27 10:21 | 28.56951 | 77.13395 | 1136 ft | 158 kts | 271° |
| 2026-04-27 10:21 | 28.56979 | 77.12185 | 926 ft | 147 kts | 271° |
| 2026-04-27 10:21 | 28.57005 | 77.11047 | 786 ft | 142 kts | 271° |
| 2026-04-27 10:21 | 28.57026 | 77.10088 | 784 ft | 97 kts | 271° |
| 2026-04-27 10:22 | 28.57040 | 77.09508 | 784 ft | 43 kts | 271° |
| 2026-04-27 10:22 | 28.56975 | 77.09252 | 784 ft | 30 kts | 243° |
| 2026-04-27 10:22 | 28.56902 | 77.09242 | 784 ft | 15 kts | 86° |
| 2026-04-27 10:22 | 28.56885 | 77.09367 | 784 ft | 16 kts | 91° |
| 2026-04-27 10:23 | 28.56883 | 77.09543 | 784 ft | 27 kts | 91° |
| 2026-04-27 10:23 | 28.56877 | 77.09793 | 784 ft | 36 kts | 91° |
| 2026-04-27 10:23 | 28.56870 | 77.10113 | 784 ft | 43 kts | 91° |
| 2026-04-27 10:23 | 28.56862 | 77.10482 | 784 ft | 50 kts | 92° |
| 2026-04-27 10:24 | 28.56848 | 77.10797 | 784 ft | 20 kts | 125° |
| 2026-04-27 10:24 | 28.56744 | 77.10835 | 784 ft | 16 kts | 83° |
| 2026-04-27 10:24 | 28.56764 | 77.10970 | 784 ft | 18 kts | 84° |
| 2026-04-27 10:24 | 28.56773 | 77.11118 | 784 ft | 19 kts | 89° |
| 2026-04-27 10:25 | 28.56732 | 77.11230 | 784 ft | 16 kts | 198° |
| 2026-04-27 10:25 | 28.56632 | 77.11272 | 784 ft | 17 kts | 129° |
| 2026-04-27 10:25 | 28.56523 | 77.11292 | 784 ft | 17 kts | 195° |
| 2026-04-27 10:25 | 28.56413 | 77.11310 | 784 ft | 17 kts | 114° |
| 2026-04-27 10:26 | 28.56384 | 77.11435 | 784 ft | 14 kts | 99° |
| 2026-04-27 10:26 | 28.56455 | 77.11485 | 784 ft | 9 kts | 19° |
| 2026-04-27 10:26 | 28.56465 | 77.11490 | 784 ft | 0 kts | 18° |
| 2026-04-27 10:26 | 28.56466 | 77.11490 | 784 ft | 0 kts | 18° |